KRWL

Details ICAO KRWL
Name RAWLINS MUNI HARVEY FLD
Region United States
Timezone America/Denver (UTC-6.0)
Plans Departing 1
Arriving 1
Stats Elevation 6,813 ft / 2,077 m (AMSL)
Location 41.805698° -107.200542°
Runways 2
Magnetic Variation 9.492° E
Sunrise 2018-05-27 11:40:31 UTC / 2018-05-27 05:40:31 Local
Sunset 2018-05-28 02:34:21 UTC / 2018-05-27 20:34:21 Local
Advertisement - Login to hide

Runways

ID Width Length Bearing (true) Bearing (mag) Surface Threshold Offset Overrun Length
04 98 ft / 30 m 6,990 ft / 2,131 m 53.89° 44.40° Asphalt 0 ft / 0 m 0 ft / 0 m
10 59 ft / 18 m 4,283 ft / 1,305 m 115.11° 105.62° Asphalt 0 ft / 0 m 0 ft / 0 m
22 98 ft / 30 m 6,990 ft / 2,131 m 233.91° 224.42° Asphalt 0 ft / 0 m 0 ft / 0 m
28 59 ft / 18 m 4,283 ft / 1,305 m 295.12° 285.63° Asphalt 0 ft / 0 m 0 ft / 0 m

Map

Weather


0- 5 10 15 20 25 30 35+ Temperature / ° C

Clouds and Precipitation
Forecast for 2018-05-27 12:00 UTC. Updated 5 hours ago

Ground ~20,000 ft ~40,000 ft Winds

METAR

KRWL 271553Z AUTO 08019G28KT 10SM CLR 19/09 A3005 RMK AO2 PK WND 07028/1549 SLP072 T01940089

TAF

KRWL 271139Z 2712/2812 VRB05KT P6SM BKN200 FM271900 VRB05KT P6SM VCTS BKN080CB FM280000 01014KT P6SM SCT025 BKN040

Frequencies

Recorded 118.52 MHz ASOS
Unicom 123.00 MHz CTAF/UNICOM
Warning: Do not use this data for real-world aviation or navigation. No guarantee of current accuracy is given.